sensor_id;sensor_type;location;lat;lon;timestamp;temperature;humidity
7518;DHT22;3800;48.922;9.444;2022-12-18T00:02:13;-11.00;99.90
7518;DHT22;3800;48.922;9.444;2022-12-18T00:04:40;-11.10;99.90
7518;DHT22;3800;48.922;9.444;2022-12-18T00:07:08;-11.10;99.90
7518;DHT22;3800;48.922;9.444;2022-12-18T00:09:36;-11.10;99.90
7518;DHT22;3800;48.922;9.444;2022-12-18T00:12:03;-11.00;99.90
7518;DHT22;3800;48.922;9.444;2022-12-18T00:14:32;-11.00;99.90
7518;DHT22;3800;48.922;9.444;2022-12-18T00:16:59;-11.00;99.90
7518;DHT22;3800;48.922;9.444;2022-12-18T00:19:28;-11.10;99.90
7518;DHT22;3800;48.922;9.444;2022-12-18T00:21:55;-11.10;99.90
7518;DHT22;3800;48.922;9.444;2022-12-18T00:24:23;-11.30;99.90
7518;DHT22;3800;48.922;9.444;2022-12-18T00:26:51;-11.40;99.90
7518;DHT22;3800;48.922;9.444;2022-12-18T00:29:18;-11.50;99.90
7518;DHT22;3800;48.922;9.444;2022-12-18T00:31:46;-11.50;99.90
7518;DHT22;3800;48.922;9.444;2022-12-18T00:34:14;-11.60;99.90
7518;DHT22;3800;48.922;9.444;2022-12-18T00:36:42;-11.60;99.90
7518;DHT22;3800;48.922;9.444;2022-12-18T00:39:10;-11.60;99.90
7518;DHT22;3800;48.922;9.444;2022-12-18T00:41:37;-11.60;99.90
7518;DHT22;3800;48.922;9.444;2022-12-18T00:44:11;-11.70;99.90
7518;DHT22;3800;48.922;9.444;2022-12-18T00:46:39;-11.70;99.90
7518;DHT22;3800;48.922;9.444;2022-12-18T00:49:07;-11.70;99.90
7518;DHT22;3800;48.922;9.444;2022-12-18T00:51:35;-11.70;99.90
7518;DHT22;3800;48.922;9.444;2022-12-18T00:54:03;-11.70;99.90
7518;DHT22;3800;48.922;9.444;2022-12-18T00:56:31;-11.60;99.90
7518;DHT22;3800;48.922;9.444;2022-12-18T00:58:58;-11.60;99.90
7518;DHT22;3800;48.922;9.444;2022-12-18T01:01:26;-11.50;99.90
7518;DHT22;3800;48.922;9.444;2022-12-18T01:03:53;-11.50;99.90
7518;DHT22;3800;48.922;9.444;2022-12-18T01:06:21;-11.50;99.90
7518;DHT22;3800;48.922;9.444;2022-12-18T01:08:49;-11.40;99.90
7518;DHT22;3800;48.922;9.444;2022-12-18T01:11:17;-11.40;99.90
7518;DHT22;3800;48.922;9.444;2022-12-18T01:13:44;-11.40;99.90
7518;DHT22;3800;48.922;9.444;2022-12-18T01:16:12;-11.30;99.90
7518;DHT22;3800;48.922;9.444;2022-12-18T01:18:39;-11.30;99.90
7518;DHT22;3800;48.922;9.444;2022-12-18T01:21:08;-11.30;99.90
7518;DHT22;3800;48.922;9.444;2022-12-18T01:23:35;-11.40;99.90
7518;DHT22;3800;48.922;9.444;2022-12-18T01:26:11;-11.60;99.90
7518;DHT22;3800;48.922;9.444;2022-12-18T01:28:37;-11.60;99.90
7518;DHT22;3800;48.922;9.444;2022-12-18T01:31:15;-11.70;99.90
7518;DHT22;3800;48.922;9.444;2022-12-18T01:33:42;-11.70;99.90
7518;DHT22;3800;48.922;9.444;2022-12-18T01:36:14;-11.80;99.90
7518;DHT22;3800;48.922;9.444;2022-12-18T01:38:37;-11.90;99.90
7518;DHT22;3800;48.922;9.444;2022-12-18T01:41:04;-11.90;99.90
7518;DHT22;3800;48.922;9.444;2022-12-18T01:43:44;-11.80;99.90
7518;DHT22;3800;48.922;9.444;2022-12-18T01:46:11;-11.80;99.90
7518;DHT22;3800;48.922;9.444;2022-12-18T01:48:39;-11.70;99.90
7518;DHT22;3800;48.922;9.444;2022-12-18T01:51:07;-11.70;99.90
7518;DHT22;3800;48.922;9.444;2022-12-18T01:53:35;-11.60;99.90
7518;DHT22;3800;48.922;9.444;2022-12-18T01:56:03;-11.70;99.90
7518;DHT22;3800;48.922;9.444;2022-12-18T01:58:48;-11.60;99.90
7518;DHT22;3800;48.922;9.444;2022-12-18T02:01:13;-11.60;99.90
7518;DHT22;3800;48.922;9.444;2022-12-18T02:03:42;-11.60;99.90
7518;DHT22;3800;48.922;9.444;2022-12-18T02:06:11;-11.60;99.90
7518;DHT22;3800;48.922;9.444;2022-12-18T02:08:45;-11.70;99.90
7518;DHT22;3800;48.922;9.444;2022-12-18T02:11:21;-11.70;99.90
7518;DHT22;3800;48.922;9.444;2022-12-18T02:13:57;-11.60;99.90
7518;DHT22;3800;48.922;9.444;2022-12-18T02:16:25;-11.60;99.90
7518;DHT22;3800;48.922;9.444;2022-12-18T02:18:54;-11.60;99.90
7518;DHT22;3800;48.922;9.444;2022-12-18T02:24:45;-11.60;99.90
7518;DHT22;3800;48.922;9.444;2022-12-18T02:27:03;-11.60;99.90
7518;DHT22;3800;48.922;9.444;2022-12-18T02:29:31;-11.60;99.90
7518;DHT22;3800;48.922;9.444;2022-12-18T02:31:57;-11.50;99.90
7518;DHT22;3800;48.922;9.444;2022-12-18T02:34:26;-11.60;99.90
7518;DHT22;3800;48.922;9.444;2022-12-18T02:36:53;-11.60;99.90
7518;DHT22;3800;48.922;9.444;2022-12-18T02:39:21;-11.50;99.90
7518;DHT22;3800;48.922;9.444;2022-12-18T02:41:49;-11.50;99.90
7518;DHT22;3800;48.922;9.444;2022-12-18T02:44:17;-11.50;99.90
7518;DHT22;3800;48.922;9.444;2022-12-18T02:46:45;-11.50;99.90
7518;DHT22;3800;48.922;9.444;2022-12-18T02:51:50;-11.40;99.90
7518;DHT22;3800;48.922;9.444;2022-12-18T02:54:35;-11.30;99.90
7518;DHT22;3800;48.922;9.444;2022-12-18T02:57:05;-11.30;99.90
7518;DHT22;3800;48.922;9.444;2022-12-18T02:59:34;-11.30;99.90
7518;DHT22;3800;48.922;9.444;2022-12-18T03:02:01;-11.30;99.90
7518;DHT22;3800;48.922;9.444;2022-12-18T03:04:39;-11.30;99.90
7518;DHT22;3800;48.922;9.444;2022-12-18T03:07:09;-11.30;99.90
7518;DHT22;3800;48.922;9.444;2022-12-18T03:09:36;-11.30;99.90
7518;DHT22;3800;48.922;9.444;2022-12-18T03:12:14;-11.30;99.90
7518;DHT22;3800;48.922;9.444;2022-12-18T03:14:44;-11.30;99.90
7518;DHT22;3800;48.922;9.444;2022-12-18T03:17:12;-11.30;99.90
7518;DHT22;3800;48.922;9.444;2022-12-18T03:19:40;-11.50;99.90
7518;DHT22;3800;48.922;9.444;2022-12-18T03:22:07;-11.50;99.90
7518;DHT22;3800;48.922;9.444;2022-12-18T03:24:36;-11.60;99.90
7518;DHT22;3800;48.922;9.444;2022-12-18T03:27:04;-11.60;99.90
7518;DHT22;3800;48.922;9.444;2022-12-18T03:29:35;-11.50;99.90
7518;DHT22;3800;48.922;9.444;2022-12-18T03:32:04;-11.60;99.90
7518;DHT22;3800;48.922;9.444;2022-12-18T03:34:30;-11.60;99.90
7518;DHT22;3800;48.922;9.444;2022-12-18T03:36:57;-11.60;99.90
7518;DHT22;3800;48.922;9.444;2022-12-18T03:39:25;-11.60;99.90
7518;DHT22;3800;48.922;9.444;2022-12-18T03:41:59;-11.60;99.90
7518;DHT22;3800;48.922;9.444;2022-12-18T03:47:13;-11.50;99.90
7518;DHT22;3800;48.922;9.444;2022-12-18T03:49:47;-11.50;99.90
7518;DHT22;3800;48.922;9.444;2022-12-18T03:52:17;-11.40;99.90
7518;DHT22;3800;48.922;9.444;2022-12-18T03:54:42;-11.40;99.90
7518;DHT22;3800;48.922;9.444;2022-12-18T03:57:14;-11.60;99.90
7518;DHT22;3800;48.922;9.444;2022-12-18T03:59:40;-11.60;99.90
7518;DHT22;3800;48.922;9.444;2022-12-18T04:02:08;-11.60;99.90
7518;DHT22;3800;48.922;9.444;2022-12-18T04:04:36;-11.60;99.90
7518;DHT22;3800;48.922;9.444;2022-12-18T04:07:04;-11.50;99.90
7518;DHT22;3800;48.922;9.444;2022-12-18T04:09:31;-11.50;99.90
7518;DHT22;3800;48.922;9.444;2022-12-18T04:11:59;-11.50;99.90
7518;DHT22;3800;48.922;9.444;2022-12-18T04:14:27;-11.60;99.90
7518;DHT22;3800;48.922;9.444;2022-12-18T04:16:55;-11.60;99.90
7518;DHT22;3800;48.922;9.444;2022-12-18T04:19:23;-11.60;99.90
7518;DHT22;3800;48.922;9.444;2022-12-18T04:21:51;-11.60;99.90
7518;DHT22;3800;48.922;9.444;2022-12-18T04:24:19;-11.70;99.90
7518;DHT22;3800;48.922;9.444;2022-12-18T04:26:47;-11.80;99.90
7518;DHT22;3800;48.922;9.444;2022-12-18T04:29:15;-11.70;99.90
7518;DHT22;3800;48.922;9.444;2022-12-18T04:31:43;-11.80;99.90
7518;DHT22;3800;48.922;9.444;2022-12-18T04:34:11;-11.70;99.90
7518;DHT22;3800;48.922;9.444;2022-12-18T04:36:38;-11.70;99.90
7518;DHT22;3800;48.922;9.444;2022-12-18T04:39:07;-11.80;99.90
7518;DHT22;3800;48.922;9.444;2022-12-18T04:41:34;-11.80;99.90
7518;DHT22;3800;48.922;9.444;2022-12-18T04:44:03;-11.90;99.90
7518;DHT22;3800;48.922;9.444;2022-12-18T04:46:30;-11.90;99.90
7518;DHT22;3800;48.922;9.444;2022-12-18T04:48:59;-11.90;99.90
7518;DHT22;3800;48.922;9.444;2022-12-18T04:51:26;-12.00;99.90
7518;DHT22;3800;48.922;9.444;2022-12-18T04:53:55;-11.90;99.90
7518;DHT22;3800;48.922;9.444;2022-12-18T04:56:23;-11.90;99.90
7518;DHT22;3800;48.922;9.444;2022-12-18T04:58:51;-11.90;99.90
7518;DHT22;3800;48.922;9.444;2022-12-18T05:01:19;-11.90;99.90
7518;DHT22;3800;48.922;9.444;2022-12-18T05:03:47;-11.80;99.90
7518;DHT22;3800;48.922;9.444;2022-12-18T05:06:15;-11.80;99.90
7518;DHT22;3800;48.922;9.444;2022-12-18T05:08:42;-11.70;99.90
7518;DHT22;3800;48.922;9.444;2022-12-18T05:11:12;-11.70;99.90
7518;DHT22;3800;48.922;9.444;2022-12-18T05:13:38;-11.80;99.90
7518;DHT22;3800;48.922;9.444;2022-12-18T05:16:06;-11.80;99.90
7518;DHT22;3800;48.922;9.444;2022-12-18T05:18:34;-11.70;99.90
7518;DHT22;3800;48.922;9.444;2022-12-18T05:21:02;-11.70;99.90
7518;DHT22;3800;48.922;9.444;2022-12-18T05:23:29;-11.70;99.90
7518;DHT22;3800;48.922;9.444;2022-12-18T05:25:58;-11.70;99.90
7518;DHT22;3800;48.922;9.444;2022-12-18T05:28:26;-11.60;99.90
7518;DHT22;3800;48.922;9.444;2022-12-18T05:30:56;-11.60;99.90
7518;DHT22;3800;48.922;9.444;2022-12-18T05:33:22;-11.50;99.90
7518;DHT22;3800;48.922;9.444;2022-12-18T05:35:51;-11.50;99.90
7518;DHT22;3800;48.922;9.444;2022-12-18T05:38:19;-11.50;99.90
7518;DHT22;3800;48.922;9.444;2022-12-18T05:40:47;-11.30;99.90
7518;DHT22;3800;48.922;9.444;2022-12-18T05:43:15;-11.20;99.90
7518;DHT22;3800;48.922;9.444;2022-12-18T05:45:42;-11.30;99.90
7518;DHT22;3800;48.922;9.444;2022-12-18T05:48:11;-11.10;99.90
7518;DHT22;3800;48.922;9.444;2022-12-18T05:50:39;-11.10;99.90
7518;DHT22;3800;48.922;9.444;2022-12-18T05:53:07;-11.00;99.90
7518;DHT22;3800;48.922;9.444;2022-12-18T05:55:35;-11.00;99.90
7518;DHT22;3800;48.922;9.444;2022-12-18T05:58:03;-10.90;99.90
7518;DHT22;3800;48.922;9.444;2022-12-18T06:00:31;-10.90;99.90
7518;DHT22;3800;48.922;9.444;2022-12-18T06:02:58;-10.90;99.90
7518;DHT22;3800;48.922;9.444;2022-12-18T06:05:26;-10.80;99.90
7518;DHT22;3800;48.922;9.444;2022-12-18T06:07:53;-10.70;99.90
7518;DHT22;3800;48.922;9.444;2022-12-18T06:10:21;-10.70;99.90
7518;DHT22;3800;48.922;9.444;2022-12-18T06:12:49;-10.70;99.90
7518;DHT22;3800;48.922;9.444;2022-12-18T06:15:16;-10.70;99.90
7518;DHT22;3800;48.922;9.444;2022-12-18T06:17:45;-10.80;99.90
7518;DHT22;3800;48.922;9.444;2022-12-18T06:20:12;-10.80;99.90
7518;DHT22;3800;48.922;9.444;2022-12-18T06:22:41;-10.80;99.90
7518;DHT22;3800;48.922;9.444;2022-12-18T06:25:08;-10.80;99.90
7518;DHT22;3800;48.922;9.444;2022-12-18T06:27:37;-10.80;99.90
7518;DHT22;3800;48.922;9.444;2022-12-18T06:30:05;-10.80;99.90
7518;DHT22;3800;48.922;9.444;2022-12-18T06:32:33;-10.80;99.90
7518;DHT22;3800;48.922;9.444;2022-12-18T06:35:00;-10.80;99.90
7518;DHT22;3800;48.922;9.444;2022-12-18T06:37:28;-10.80;99.90
7518;DHT22;3800;48.922;9.444;2022-12-18T06:39:57;-10.80;99.90
7518;DHT22;3800;48.922;9.444;2022-12-18T06:42:24;-10.80;99.90
7518;DHT22;3800;48.922;9.444;2022-12-18T06:44:52;-10.80;99.90
7518;DHT22;3800;48.922;9.444;2022-12-18T06:47:19;-10.80;99.90
7518;DHT22;3800;48.922;9.444;2022-12-18T06:49:47;-10.80;99.90
7518;DHT22;3800;48.922;9.444;2022-12-18T06:52:16;-10.70;99.90
7518;DHT22;3800;48.922;9.444;2022-12-18T06:54:43;-10.70;99.90
7518;DHT22;3800;48.922;9.444;2022-12-18T06:57:11;-10.70;99.90
7518;DHT22;3800;48.922;9.444;2022-12-18T06:59:39;-10.60;99.90
7518;DHT22;3800;48.922;9.444;2022-12-18T07:02:09;-10.60;99.90
7518;DHT22;3800;48.922;9.444;2022-12-18T07:04:34;-10.60;99.90
7518;DHT22;3800;48.922;9.444;2022-12-18T07:07:02;-10.70;99.90
7518;DHT22;3800;48.922;9.444;2022-12-18T07:09:30;-10.70;99.90
7518;DHT22;3800;48.922;9.444;2022-12-18T07:11:58;-10.70;99.90
7518;DHT22;3800;48.922;9.444;2022-12-18T07:14:25;-10.70;99.90
7518;DHT22;3800;48.922;9.444;2022-12-18T07:16:53;-10.70;99.90
7518;DHT22;3800;48.922;9.444;2022-12-18T07:19:20;-10.70;99.90
7518;DHT22;3800;48.922;9.444;2022-12-18T07:21:49;-10.60;99.90
7518;DHT22;3800;48.922;9.444;2022-12-18T07:24:17;-10.60;99.90
7518;DHT22;3800;48.922;9.444;2022-12-18T07:26:45;-10.60;99.90
7518;DHT22;3800;48.922;9.444;2022-12-18T07:29:13;-10.50;99.90
7518;DHT22;3800;48.922;9.444;2022-12-18T07:31:40;-10.50;99.90
7518;DHT22;3800;48.922;9.444;2022-12-18T07:34:12;-10.50;99.90
7518;DHT22;3800;48.922;9.444;2022-12-18T07:36:39;-10.50;99.90
7518;DHT22;3800;48.922;9.444;2022-12-18T07:39:06;-10.40;99.90
7518;DHT22;3800;48.922;9.444;2022-12-18T07:41:34;-10.40;99.90
7518;DHT22;3800;48.922;9.444;2022-12-18T07:44:02;-10.40;99.90
7518;DHT22;3800;48.922;9.444;2022-12-18T07:46:29;-10.30;99.90
7518;DHT22;3800;48.922;9.444;2022-12-18T07:48:57;-10.30;99.90
7518;DHT22;3800;48.922;9.444;2022-12-18T07:51:25;-10.30;99.90
7518;DHT22;3800;48.922;9.444;2022-12-18T07:53:53;-10.30;99.90
7518;DHT22;3800;48.922;9.444;2022-12-18T07:56:21;-10.30;99.90
7518;DHT22;3800;48.922;9.444;2022-12-18T07:58:49;-10.30;99.90
7518;DHT22;3800;48.922;9.444;2022-12-18T08:01:17;-10.20;99.90
7518;DHT22;3800;48.922;9.444;2022-12-18T08:03:44;-10.20;99.90
7518;DHT22;3800;48.922;9.444;2022-12-18T08:06:12;-10.10;99.90
7518;DHT22;3800;48.922;9.444;2022-12-18T08:08:40;-10.10;99.90
7518;DHT22;3800;48.922;9.444;2022-12-18T08:11:07;-10.10;99.90
7518;DHT22;3800;48.922;9.444;2022-12-18T08:13:35;-10.00;99.90
7518;DHT22;3800;48.922;9.444;2022-12-18T08:16:04;-10.00;99.90
7518;DHT22;3800;48.922;9.444;2022-12-18T08:18:34;-9.90;99.90
7518;DHT22;3800;48.922;9.444;2022-12-18T08:21:10;-9.80;99.90
7518;DHT22;3800;48.922;9.444;2022-12-18T08:23:37;-9.70;99.90
7518;DHT22;3800;48.922;9.444;2022-12-18T08:26:05;-9.60;99.90
7518;DHT22;3800;48.922;9.444;2022-12-18T08:28:33;-9.50;99.90
7518;DHT22;3800;48.922;9.444;2022-12-18T08:31:01;-9.50;99.90
7518;DHT22;3800;48.922;9.444;2022-12-18T08:33:29;-9.10;99.90
7518;DHT22;3800;48.922;9.444;2022-12-18T08:35:58;-9.10;99.90
7518;DHT22;3800;48.922;9.444;2022-12-18T08:38:24;-8.90;99.90
7518;DHT22;3800;48.922;9.444;2022-12-18T08:41:05;-8.70;99.90
7518;DHT22;3800;48.922;9.444;2022-12-18T08:43:33;-8.60;99.90
7518;DHT22;3800;48.922;9.444;2022-12-18T08:46:06;-8.40;99.90
7518;DHT22;3800;48.922;9.444;2022-12-18T08:48:34;-8.30;99.90
7518;DHT22;3800;48.922;9.444;2022-12-18T08:51:02;-8.20;99.90
7518;DHT22;3800;48.922;9.444;2022-12-18T08:53:29;-8.10;99.90
7518;DHT22;3800;48.922;9.444;2022-12-18T08:55:57;-8.00;99.90
7518;DHT22;3800;48.922;9.444;2022-12-18T08:58:25;-7.90;99.90
7518;DHT22;3800;48.922;9.444;2022-12-18T09:00:53;-7.90;99.90
7518;DHT22;3800;48.922;9.444;2022-12-18T09:03:21;-7.80;99.90
7518;DHT22;3800;48.922;9.444;2022-12-18T09:05:48;-7.70;99.90
7518;DHT22;3800;48.922;9.444;2022-12-18T09:08:16;-7.70;99.90
7518;DHT22;3800;48.922;9.444;2022-12-18T09:10:45;-7.60;99.90
7518;DHT22;3800;48.922;9.444;2022-12-18T09:13:12;-7.60;99.90
7518;DHT22;3800;48.922;9.444;2022-12-18T09:15:42;-7.40;99.90
7518;DHT22;3800;48.922;9.444;2022-12-18T09:18:09;-7.50;99.90
7518;DHT22;3800;48.922;9.444;2022-12-18T09:20:37;-7.30;99.90
7518;DHT22;3800;48.922;9.444;2022-12-18T09:23:05;-7.30;99.90
7518;DHT22;3800;48.922;9.444;2022-12-18T09:25:33;-7.20;99.90
7518;DHT22;3800;48.922;9.444;2022-12-18T09:28:02;-7.20;99.90
7518;DHT22;3800;48.922;9.444;2022-12-18T09:30:29;-7.10;99.90
7518;DHT22;3800;48.922;9.444;2022-12-18T09:32:57;-7.10;99.90
7518;DHT22;3800;48.922;9.444;2022-12-18T09:35:24;-7.00;99.90
7518;DHT22;3800;48.922;9.444;2022-12-18T09:37:52;-6.90;99.90
7518;DHT22;3800;48.922;9.444;2022-12-18T09:40:21;-6.90;99.90
7518;DHT22;3800;48.922;9.444;2022-12-18T09:42:50;-6.80;99.90
7518;DHT22;3800;48.922;9.444;2022-12-18T09:45:16;-6.70;99.90
7518;DHT22;3800;48.922;9.444;2022-12-18T09:47:43;-6.60;99.90
7518;DHT22;3800;48.922;9.444;2022-12-18T09:50:24;-6.60;99.90
7518;DHT22;3800;48.922;9.444;2022-12-18T09:52:51;-6.50;99.90
7518;DHT22;3800;48.922;9.444;2022-12-18T09:57:56;-6.10;99.90
7518;DHT22;3800;48.922;9.444;2022-12-18T10:00:23;-6.10;99.90
7518;DHT22;3800;48.922;9.444;2022-12-18T10:02:52;-5.90;99.90
7518;DHT22;3800;48.922;9.444;2022-12-18T10:05:28;-5.90;99.90
7518;DHT22;3800;48.922;9.444;2022-12-18T10:07:55;-5.80;99.90
7518;DHT22;3800;48.922;9.444;2022-12-18T10:10:30;-5.60;99.90
7518;DHT22;3800;48.922;9.444;2022-12-18T10:13:02;-5.40;99.90
7518;DHT22;3800;48.922;9.444;2022-12-18T10:15:38;-5.20;99.90
7518;DHT22;3800;48.922;9.444;2022-12-18T10:18:14;-5.10;99.90
7518;DHT22;3800;48.922;9.444;2022-12-18T10:20:39;-5.00;99.90
7518;DHT22;3800;48.922;9.444;2022-12-18T10:23:26;-4.90;99.90
7518;DHT22;3800;48.922;9.444;2022-12-18T10:26:00;-4.70;99.90
7518;DHT22;3800;48.922;9.444;2022-12-18T10:28:25;-4.60;99.90
7518;DHT22;3800;48.922;9.444;2022-12-18T10:30:53;-4.50;99.90
7518;DHT22;3800;48.922;9.444;2022-12-18T10:33:22;-4.40;99.90
7518;DHT22;3800;48.922;9.444;2022-12-18T10:35:50;-4.30;99.90
7518;DHT22;3800;48.922;9.444;2022-12-18T10:38:21;-4.20;99.90
7518;DHT22;3800;48.922;9.444;2022-12-18T10:40:53;-4.20;99.90
7518;DHT22;3800;48.922;9.444;2022-12-18T10:43:22;-4.10;99.90
7518;DHT22;3800;48.922;9.444;2022-12-18T10:45:58;-4.10;99.90
7518;DHT22;3800;48.922;9.444;2022-12-18T10:48:25;-4.10;99.90
7518;DHT22;3800;48.922;9.444;2022-12-18T10:50:53;-3.90;99.90
7518;DHT22;3800;48.922;9.444;2022-12-18T10:53:24;-4.00;99.90
7518;DHT22;3800;48.922;9.444;2022-12-18T10:55:53;-3.80;99.90
7518;DHT22;3800;48.922;9.444;2022-12-18T10:58:23;-3.80;99.90
7518;DHT22;3800;48.922;9.444;2022-12-18T11:03:32;-3.70;99.90
7518;DHT22;3800;48.922;9.444;2022-12-18T11:06:05;-3.70;99.90
7518;DHT22;3800;48.922;9.444;2022-12-18T11:08:32;-3.60;99.90
7518;DHT22;3800;48.922;9.444;2022-12-18T11:11:00;-3.60;99.90
7518;DHT22;3800;48.922;9.444;2022-12-18T11:13:29;-3.50;99.90
7518;DHT22;3800;48.922;9.444;2022-12-18T11:15:56;-3.50;99.90
7518;DHT22;3800;48.922;9.444;2022-12-18T11:18:30;-3.40;99.90
7518;DHT22;3800;48.922;9.444;2022-12-18T11:21:04;-3.40;99.90
7518;DHT22;3800;48.922;9.444;2022-12-18T11:23:27;-3.30;99.90
7518;DHT22;3800;48.922;9.444;2022-12-18T11:25:58;-3.20;99.90
7518;DHT22;3800;48.922;9.444;2022-12-18T11:31:11;-3.20;99.90
7518;DHT22;3800;48.922;9.444;2022-12-18T11:33:38;-3.10;99.90
7518;DHT22;3800;48.922;9.444;2022-12-18T11:36:05;-3.10;99.90
7518;DHT22;3800;48.922;9.444;2022-12-18T11:38:34;-3.00;99.90
7518;DHT22;3800;48.922;9.444;2022-12-18T11:41:07;-3.00;99.90
7518;DHT22;3800;48.922;9.444;2022-12-18T11:43:42;-2.90;99.90
7518;DHT22;3800;48.922;9.444;2022-12-18T11:46:10;-2.90;99.90
7518;DHT22;3800;48.922;9.444;2022-12-18T11:48:43;-2.80;99.90
7518;DHT22;3800;48.922;9.444;2022-12-18T11:51:11;-2.70;99.90
7518;DHT22;3800;48.922;9.444;2022-12-18T11:53:37;-2.70;99.90
7518;DHT22;3800;48.922;9.444;2022-12-18T11:56:11;-2.70;99.90
7518;DHT22;3800;48.922;9.444;2022-12-18T12:01:31;-2.60;99.90
7518;DHT22;3800;48.922;9.444;2022-12-18T12:04:01;-2.60;99.90
7518;DHT22;3800;48.922;9.444;2022-12-18T12:06:42;-2.50;99.90
7518;DHT22;3800;48.922;9.444;2022-12-18T12:09:23;-2.50;99.90
7518;DHT22;3800;48.922;9.444;2022-12-18T12:11:55;-2.40;99.90
7518;DHT22;3800;48.922;9.444;2022-12-18T12:14:32;-2.40;99.90
7518;DHT22;3800;48.922;9.444;2022-12-18T12:19:38;-2.30;99.90
7518;DHT22;3800;48.922;9.444;2022-12-18T12:22:07;-2.40;99.90
7518;DHT22;3800;48.922;9.444;2022-12-18T12:24:55;-2.30;99.90
7518;DHT22;3800;48.922;9.444;2022-12-18T12:27:29;-2.30;99.90
7518;DHT22;3800;48.922;9.444;2022-12-18T12:30:06;-2.30;99.90
7518;DHT22;3800;48.922;9.444;2022-12-18T12:32:54;-2.20;99.90
7518;DHT22;3800;48.922;9.444;2022-12-18T12:35:25;-2.20;99.90
7518;DHT22;3800;48.922;9.444;2022-12-18T12:40:24;-2.10;99.90
7518;DHT22;3800;48.922;9.444;2022-12-18T12:42:54;-2.10;99.90
7518;DHT22;3800;48.922;9.444;2022-12-18T12:45:46;-2.00;99.90
7518;DHT22;3800;48.922;9.444;2022-12-18T12:48:29;-2.00;99.90
7518;DHT22;3800;48.922;9.444;2022-12-18T12:50:50;-2.00;99.90
7518;DHT22;3800;48.922;9.444;2022-12-18T12:53:22;-1.90;99.90
7518;DHT22;3800;48.922;9.444;2022-12-18T12:55:49;-1.90;99.90
7518;DHT22;3800;48.922;9.444;2022-12-18T12:58:36;-1.90;99.90
7518;DHT22;3800;48.922;9.444;2022-12-18T13:01:07;-1.90;99.90
7518;DHT22;3800;48.922;9.444;2022-12-18T13:03:41;-1.80;99.90
7518;DHT22;3800;48.922;9.444;2022-12-18T13:06:12;-1.80;99.90
7518;DHT22;3800;48.922;9.444;2022-12-18T13:14:01;-1.70;99.90
7518;DHT22;3800;48.922;9.444;2022-12-18T13:16:29;-1.70;99.90
7518;DHT22;3800;48.922;9.444;2022-12-18T13:18:57;-1.70;99.90
7518;DHT22;3800;48.922;9.444;2022-12-18T13:21:29;-1.60;99.90
7518;DHT22;3800;48.922;9.444;2022-12-18T13:23:56;-1.60;99.90
7518;DHT22;3800;48.922;9.444;2022-12-18T13:26:31;-1.60;99.90
7518;DHT22;3800;48.922;9.444;2022-12-18T13:28:59;-1.60;99.90
7518;DHT22;3800;48.922;9.444;2022-12-18T13:34:29;-1.60;99.90
7518;DHT22;3800;48.922;9.444;2022-12-18T13:37:38;-1.70;99.90
7518;DHT22;3800;48.922;9.444;2022-12-18T13:39:30;-1.60;99.90
7518;DHT22;3800;48.922;9.444;2022-12-18T13:41:54;-1.60;99.90
7518;DHT22;3800;48.922;9.444;2022-12-18T13:44:32;-1.60;99.90
7518;DHT22;3800;48.922;9.444;2022-12-18T13:47:00;-1.50;99.90
7518;DHT22;3800;48.922;9.444;2022-12-18T13:49:44;-1.50;99.90
7518;DHT22;3800;48.922;9.444;2022-12-18T13:52:17;-1.50;99.90
7518;DHT22;3800;48.922;9.444;2022-12-18T13:54:44;-1.50;99.90
7518;DHT22;3800;48.922;9.444;2022-12-18T13:57:27;-1.50;99.90
7518;DHT22;3800;48.922;9.444;2022-12-18T13:59:53;-1.50;99.90
7518;DHT22;3800;48.922;9.444;2022-12-18T14:02:22;-1.50;99.90
7518;DHT22;3800;48.922;9.444;2022-12-18T14:04:49;-1.50;99.90
7518;DHT22;3800;48.922;9.444;2022-12-18T14:07:18;-1.50;99.90
7518;DHT22;3800;48.922;9.444;2022-12-18T14:09:48;-1.60;99.90
7518;DHT22;3800;48.922;9.444;2022-12-18T14:12:31;-1.60;99.90
7518;DHT22;3800;48.922;9.444;2022-12-18T14:15:03;-1.60;99.90
7518;DHT22;3800;48.922;9.444;2022-12-18T14:17:31;-1.70;99.90
7518;DHT22;3800;48.922;9.444;2022-12-18T14:19:58;-1.70;99.90
7518;DHT22;3800;48.922;9.444;2022-12-18T14:22:26;-1.70;99.90
7518;DHT22;3800;48.922;9.444;2022-12-18T14:25:10;-1.70;99.90
7518;DHT22;3800;48.922;9.444;2022-12-18T14:27:36;-1.80;99.90
7518;DHT22;3800;48.922;9.444;2022-12-18T14:29:59;-1.80;99.90
7518;DHT22;3800;48.922;9.444;2022-12-18T14:32:27;-1.90;99.90
7518;DHT22;3800;48.922;9.444;2022-12-18T14:34:55;-1.90;99.90
7518;DHT22;3800;48.922;9.444;2022-12-18T14:37:24;-1.90;99.90
7518;DHT22;3800;48.922;9.444;2022-12-18T14:39:53;-2.00;99.90
7518;DHT22;3800;48.922;9.444;2022-12-18T14:42:20;-2.10;99.90
7518;DHT22;3800;48.922;9.444;2022-12-18T14:44:48;-2.10;99.90
7518;DHT22;3800;48.922;9.444;2022-12-18T14:47:15;-2.10;99.90
7518;DHT22;3800;48.922;9.444;2022-12-18T14:49:43;-2.20;99.90
7518;DHT22;3800;48.922;9.444;2022-12-18T14:52:27;-2.20;99.90
7518;DHT22;3800;48.922;9.444;2022-12-18T14:54:54;-2.20;99.90
7518;DHT22;3800;48.922;9.444;2022-12-18T14:57:24;-2.40;99.90
7518;DHT22;3800;48.922;9.444;2022-12-18T14:59:51;-2.40;99.90
7518;DHT22;3800;48.922;9.444;2022-12-18T15:02:21;-2.40;99.90
7518;DHT22;3800;48.922;9.444;2022-12-18T15:04:47;-2.40;99.90
7518;DHT22;3800;48.922;9.444;2022-12-18T15:07:17;-2.50;99.90
7518;DHT22;3800;48.922;9.444;2022-12-18T15:09:59;-2.50;99.90
7518;DHT22;3800;48.922;9.444;2022-12-18T15:12:24;-2.60;99.90
7518;DHT22;3800;48.922;9.444;2022-12-18T15:14:50;-2.70;99.90
7518;DHT22;3800;48.922;9.444;2022-12-18T15:17:19;-2.70;99.90
7518;DHT22;3800;48.922;9.444;2022-12-18T15:19:46;-2.70;99.90
7518;DHT22;3800;48.922;9.444;2022-12-18T15:22:34;-2.80;99.90
7518;DHT22;3800;48.922;9.444;2022-12-18T15:25:03;-2.80;99.90
7518;DHT22;3800;48.922;9.444;2022-12-18T15:27:32;-2.90;99.90
7518;DHT22;3800;48.922;9.444;2022-12-18T15:30:19;-3.00;99.90
7518;DHT22;3800;48.922;9.444;2022-12-18T15:32:45;-3.00;99.90
7518;DHT22;3800;48.922;9.444;2022-12-18T15:35:14;-3.00;99.90
7518;DHT22;3800;48.922;9.444;2022-12-18T15:37:41;-3.10;99.90
7518;DHT22;3800;48.922;9.444;2022-12-18T15:40:14;-3.10;99.90
7518;DHT22;3800;48.922;9.444;2022-12-18T15:42:42;-3.10;99.90
7518;DHT22;3800;48.922;9.444;2022-12-18T15:45:14;-3.10;99.90
7518;DHT22;3800;48.922;9.444;2022-12-18T15:47:42;-3.10;99.90
7518;DHT22;3800;48.922;9.444;2022-12-18T15:50:10;-3.10;99.90
7518;DHT22;3800;48.922;9.444;2022-12-18T15:52:40;-3.10;99.90
7518;DHT22;3800;48.922;9.444;2022-12-18T15:55:13;-3.20;99.90
7518;DHT22;3800;48.922;9.444;2022-12-18T15:57:45;-3.20;99.90
7518;DHT22;3800;48.922;9.444;2022-12-18T16:00:13;-3.20;99.90
7518;DHT22;3800;48.922;9.444;2022-12-18T16:02:40;-3.20;99.90
7518;DHT22;3800;48.922;9.444;2022-12-18T16:05:19;-3.30;99.90
7518;DHT22;3800;48.922;9.444;2022-12-18T16:07:46;-3.30;99.90
7518;DHT22;3800;48.922;9.444;2022-12-18T16:10:14;-3.40;99.90
7518;DHT22;3800;48.922;9.444;2022-12-18T16:12:41;-3.30;99.90
7518;DHT22;3800;48.922;9.444;2022-12-18T16:15:10;-3.40;99.90
7518;DHT22;3800;48.922;9.444;2022-12-18T16:17:37;-3.40;99.90
7518;DHT22;3800;48.922;9.444;2022-12-18T16:20:06;-3.40;99.90
7518;DHT22;3800;48.922;9.444;2022-12-18T16:22:33;-3.40;99.90
7518;DHT22;3800;48.922;9.444;2022-12-18T16:25:01;-3.40;99.90
7518;DHT22;3800;48.922;9.444;2022-12-18T16:27:29;-3.50;99.90
7518;DHT22;3800;48.922;9.444;2022-12-18T16:29:57;-3.50;99.90
7518;DHT22;3800;48.922;9.444;2022-12-18T16:32:25;-3.70;99.90
7518;DHT22;3800;48.922;9.444;2022-12-18T16:34:53;-3.70;99.90
7518;DHT22;3800;48.922;9.444;2022-12-18T16:37:21;-3.70;99.90
7518;DHT22;3800;48.922;9.444;2022-12-18T16:39:48;-3.80;99.90
7518;DHT22;3800;48.922;9.444;2022-12-18T16:42:17;-3.80;99.90